createdAt,value
2023-04-30T00:02:15.195Z,102486.78
2023-04-30T00:04:41.979Z,102487.28
2023-04-30T00:07:08.980Z,102486.78
2023-04-30T00:09:35.941Z,102482.91
2023-04-30T00:12:03.202Z,102480.84
2023-04-30T00:14:30.330Z,102480.03
2023-04-30T00:16:57.332Z,102481.88
2023-04-30T00:19:24.159Z,102483.50
2023-04-30T00:21:51.120Z,102480.00
2023-04-30T00:24:18.023Z,102482.94
2023-04-30T00:26:45.150Z,102480.94
2023-04-30T00:29:12.776Z,102478.13
2023-04-30T00:31:39.823Z,102479.78
2023-04-30T00:34:06.780Z,102485.41
2023-04-30T00:36:33.748Z,102481.56
2023-04-30T00:39:00.781Z,102491.13
2023-04-30T00:41:28.037Z,102493.22
2023-04-30T00:43:55.170Z,102497.25
2023-04-30T00:46:22.243Z,102494.25
2023-04-30T00:48:50.559Z,102497.41
2023-04-30T00:51:17.561Z,102492.03
2023-04-30T00:53:44.429Z,102489.16
2023-04-30T00:56:13.459Z,102492.28
2023-04-30T00:58:40.510Z,102485.28
2023-04-30T01:01:07.814Z,102498.28
2023-04-30T01:03:36.572Z,102493.84
2023-04-30T01:06:04.351Z,102497.06
2023-04-30T01:08:32.247Z,102499.94
2023-04-30T01:11:13.857Z,102498.31
2023-04-30T01:14:25.604Z,102495.69
2023-04-30T01:17:01.759Z,102490.22
2023-04-30T01:19:45.027Z,102487.91
2023-04-30T01:22:36.394Z,102496.81
2023-04-30T01:25:06.991Z,102499.19
2023-04-30T01:28:01.915Z,102495.59
2023-04-30T01:30:33.506Z,102505.38
2023-04-30T01:33:01.661Z,102495.47
2023-04-30T01:35:42.902Z,102503.19
2023-04-30T01:38:12.866Z,102500.56
2023-04-30T01:41:12.237Z,102500.59
2023-04-30T01:44:04.430Z,102510.13
2023-04-30T01:46:32.162Z,102513.28
2023-04-30T01:49:30.959Z,102502.94
2023-04-30T01:52:12.769Z,102506.28
2023-04-30T01:55:06.762Z,102512.88
2023-04-30T01:57:50.930Z,102508.28
2023-04-30T02:00:18.117Z,102516.72
2023-04-30T02:02:45.695Z,102512.25
2023-04-30T02:05:12.938Z,102511.41
2023-04-30T02:07:42.217Z,102504.97
2023-04-30T02:10:10.128Z,102511.56
2023-04-30T02:12:37.155Z,102505.72
2023-04-30T02:15:05.678Z,102503.91
2023-04-30T02:17:33.223Z,102508.34
2023-04-30T02:20:00.651Z,102505.28
2023-04-30T02:22:27.604Z,102504.47
2023-04-30T02:24:56.001Z,102510.00
2023-04-30T02:27:24.939Z,102509.19
2023-04-30T02:29:52.569Z,102500.47
2023-04-30T02:32:19.941Z,102496.59
2023-04-30T02:34:46.820Z,102491.72
2023-04-30T02:37:13.983Z,102497.47
2023-04-30T02:39:41.582Z,102489.25
2023-04-30T02:42:08.645Z,102479.00
2023-04-30T02:44:35.832Z,102481.59
2023-04-30T02:47:04.534Z,102473.53
2023-04-30T02:49:32.952Z,102472.09
2023-04-30T02:51:59.747Z,102474.94
2023-04-30T02:54:26.813Z,102479.97
2023-04-30T02:56:53.797Z,102487.38
2023-04-30T02:59:20.865Z,102481.66
2023-04-30T03:01:47.965Z,102484.38
2023-04-30T03:04:14.949Z,102491.38
2023-04-30T03:06:42.089Z,102488.72
2023-04-30T03:09:08.988Z,102472.63
2023-04-30T03:11:37.928Z,102478.59
2023-04-30T03:14:05.153Z,102480.38
2023-04-30T03:16:32.701Z,102482.97
2023-04-30T03:18:59.630Z,102474.69
2023-04-30T03:21:26.652Z,102473.00
2023-04-30T03:23:54.151Z,102474.72
2023-04-30T03:26:21.372Z,102472.28
2023-04-30T03:28:48.428Z,102467.47
2023-04-30T03:31:15.647Z,102477.50
2023-04-30T03:33:42.606Z,102471.97
2023-04-30T03:36:09.625Z,102468.38
2023-04-30T03:38:36.636Z,102468.78
2023-04-30T03:41:03.896Z,102470.84
2023-04-30T03:43:31.665Z,102465.41
2023-04-30T03:45:58.857Z,102468.41
2023-04-30T03:48:26.046Z,102462.06
2023-04-30T03:50:54.173Z,102460.47
2023-04-30T03:53:21.617Z,102463.25
2023-04-30T03:55:50.607Z,102459.34
2023-04-30T03:58:18.007Z,102460.38
2023-04-30T04:00:46.102Z,102455.19
2023-04-30T04:03:13.087Z,102454.38
2023-04-30T04:05:41.498Z,102451.94
2023-04-30T04:08:08.790Z,102451.41
2023-04-30T04:10:36.155Z,102445.81
2023-04-30T04:13:04.432Z,102447.56
2023-04-30T04:15:31.650Z,102453.34
2023-04-30T04:17:58.734Z,102459.47
2023-04-30T04:20:27.561Z,102457.69
2023-04-30T04:22:54.761Z,102456.78
2023-04-30T04:25:25.580Z,102455.44
2023-04-30T04:27:52.677Z,102459.16
2023-04-30T04:30:20.162Z,102460.13
2023-04-30T04:32:51.980Z,102461.34
2023-04-30T04:35:19.584Z,102461.59
2023-04-30T04:37:47.257Z,102472.81
2023-04-30T04:40:14.710Z,102461.66
2023-04-30T04:42:42.273Z,102466.59
2023-04-30T04:45:10.213Z,102465.47
2023-04-30T04:47:39.282Z,102469.59
2023-04-30T04:50:07.208Z,102475.97
2023-04-30T04:52:34.441Z,102471.09
2023-04-30T04:55:01.594Z,102475.09
2023-04-30T04:57:28.700Z,102479.97
2023-04-30T04:59:56.248Z,102481.16
2023-04-30T05:02:23.842Z,102485.59
2023-04-30T05:04:51.903Z,102485.75
2023-04-30T05:07:19.806Z,102486.78
2023-04-30T05:09:47.276Z,102480.03
2023-04-30T05:12:15.074Z,102479.19
2023-04-30T05:14:43.164Z,102481.88
2023-04-30T05:17:10.369Z,102474.50
2023-04-30T05:19:37.193Z,102476.13
2023-04-30T05:22:04.361Z,102486.44
2023-04-30T05:24:31.312Z,102480.94
2023-04-30T05:26:58.375Z,102481.38
2023-04-30T05:29:25.468Z,102484.88
2023-04-30T05:31:52.491Z,102483.72
2023-04-30T05:34:19.491Z,102488.28
2023-04-30T05:36:46.343Z,102491.38
2023-04-30T05:39:13.330Z,102493.34
2023-04-30T05:41:40.147Z,102497.25
2023-04-30T05:44:07.225Z,102495.28
2023-04-30T05:46:35.490Z,102499.72
2023-04-30T05:49:02.884Z,102502.91
2023-04-30T05:51:33.011Z,102509.19
2023-04-30T05:54:00.564Z,102508.25
2023-04-30T05:56:27.654Z,102502.25
2023-04-30T05:58:54.735Z,102507.34
2023-04-30T06:01:22.408Z,102503.59
2023-04-30T06:03:49.723Z,102507.59
2023-04-30T06:06:16.934Z,102506.19
2023-04-30T06:08:45.750Z,102507.31
2023-04-30T06:11:13.325Z,102506.66
2023-04-30T06:13:40.569Z,102519.56
2023-04-30T06:16:08.510Z,102508.22
2023-04-30T06:18:35.694Z,102512.78
2023-04-30T06:21:02.522Z,102513.03
2023-04-30T06:23:29.470Z,102512.13
2023-04-30T06:25:56.470Z,102516.22
2023-04-30T06:28:23.722Z,102515.91
2023-04-30T06:30:51.118Z,102509.34
2023-04-30T06:33:18.238Z,102512.81
2023-04-30T06:35:45.179Z,102512.16
2023-04-30T06:38:11.930Z,102516.25
2023-04-30T06:40:38.877Z,102515.94
2023-04-30T06:43:05.807Z,102518.16
2023-04-30T06:45:32.741Z,102518.84
2023-04-30T06:47:59.749Z,102522.28
2023-04-30T06:50:26.836Z,102526.00
2023-04-30T06:52:53.928Z,102519.22
2023-04-30T06:55:20.857Z,102519.25
2023-04-30T06:57:47.955Z,102517.78
2023-04-30T07:00:17.943Z,102520.94
2023-04-30T07:02:47.975Z,102523.69
2023-04-30T07:05:15.056Z,102518.63
2023-04-30T07:07:42.010Z,102522.38
2023-04-30T07:10:09.294Z,102526.28
2023-04-30T07:12:38.828Z,102521.06
2023-04-30T07:15:06.148Z,102524.38
2023-04-30T07:17:33.158Z,102520.75
2023-04-30T07:19:59.974Z,102519.53
2023-04-30T07:22:27.988Z,102526.59
2023-04-30T07:24:55.264Z,102511.16
2023-04-30T07:27:22.506Z,102514.16
2023-04-30T07:29:49.545Z,102518.75
2023-04-30T07:32:16.552Z,102517.31
2023-04-30T07:34:43.468Z,102527.81
2023-04-30T07:37:10.514Z,102523.47
2023-04-30T07:39:37.689Z,102532.16
2023-04-30T07:42:05.875Z,102526.22
2023-04-30T07:44:32.824Z,102522.28
2023-04-30T07:46:59.585Z,102509.94
2023-04-30T07:49:26.599Z,102517.91
2023-04-30T07:51:53.474Z,102512.22
2023-04-30T07:54:20.446Z,102524.09
2023-04-30T07:56:49.041Z,102523.03
2023-04-30T07:59:16.259Z,102515.84
2023-04-30T08:01:43.127Z,102514.13
2023-04-30T08:04:10.297Z,102513.31
2023-04-30T08:06:37.553Z,102517.53
2023-04-30T08:09:04.839Z,102515.91
2023-04-30T08:11:31.778Z,102519.53
2023-04-30T08:13:58.872Z,102525.81
2023-04-30T08:16:25.739Z,102512.56
2023-04-30T08:18:52.751Z,102515.34
2023-04-30T08:21:19.582Z,102512.31
2023-04-30T08:23:46.492Z,102505.09
2023-04-30T08:26:13.605Z,102513.75
2023-04-30T08:28:40.454Z,102515.31
2023-04-30T08:31:07.491Z,102510.25
2023-04-30T08:33:34.371Z,102511.19
2023-04-30T08:36:01.681Z,102515.31
2023-04-30T08:38:28.996Z,102521.50
2023-04-30T08:41:06.692Z,102516.59
2023-04-30T08:43:35.637Z,102518.44
2023-04-30T08:46:03.185Z,102517.94
2023-04-30T08:48:32.301Z,102511.75
2023-04-30T08:51:01.489Z,102522.09
2023-04-30T08:53:30.809Z,102514.72
2023-04-30T08:56:00.628Z,102516.09
2023-04-30T08:58:27.747Z,102515.75
2023-04-30T09:00:54.805Z,102516.00
2023-04-30T09:03:24.000Z,102512.66
2023-04-30T09:05:51.159Z,102517.97
2023-04-30T09:08:19.743Z,102516.00
2023-04-30T09:10:46.831Z,102507.28
2023-04-30T09:13:14.229Z,102512.69
2023-04-30T09:15:42.851Z,102504.97
2023-04-30T09:18:18.543Z,102512.13
2023-04-30T09:21:05.035Z,102501.75
2023-04-30T09:23:32.144Z,102496.00
2023-04-30T09:25:59.101Z,102491.78
2023-04-30T09:28:27.496Z,102490.75
2023-04-30T09:30:56.974Z,102478.56
2023-04-30T09:33:23.982Z,102485.25
2023-04-30T09:35:51.014Z,102480.16
2023-04-30T09:38:33.309Z,102472.53
2023-04-30T09:41:01.651Z,102482.56
2023-04-30T09:43:29.959Z,102481.38
2023-04-30T09:45:59.292Z,102474.59
2023-04-30T09:48:28.453Z,102471.47
2023-04-30T09:50:55.746Z,102467.69
2023-04-30T09:53:23.913Z,102471.53
2023-04-30T09:55:52.039Z,102468.22
2023-04-30T09:58:20.109Z,102458.06
2023-04-30T10:00:48.543Z,102468.78
2023-04-30T10:03:17.076Z,102462.38
2023-04-30T10:05:48.450Z,102457.34
2023-04-30T10:08:20.880Z,102460.66
2023-04-30T10:10:52.426Z,102461.66
2023-04-30T10:13:20.893Z,102458.03
2023-04-30T10:15:54.280Z,102456.69
2023-04-30T10:18:29.582Z,102460.66
2023-04-30T10:20:57.572Z,102454.56
2023-04-30T10:23:24.901Z,102452.22
2023-04-30T10:25:51.882Z,102458.56
2023-04-30T10:28:19.434Z,102448.34
2023-04-30T10:30:46.362Z,102447.75
2023-04-30T10:33:19.108Z,102456.13
2023-04-30T10:36:05.196Z,102449.03
2023-04-30T10:38:33.228Z,102448.41
2023-04-30T10:41:03.692Z,102444.94
2023-04-30T10:43:31.291Z,102444.75
2023-04-30T10:45:58.950Z,102448.00
2023-04-30T10:48:27.522Z,102435.34
2023-04-30T10:51:01.241Z,102442.81
2023-04-30T10:53:31.477Z,102438.19
2023-04-30T10:56:00.831Z,102431.31
2023-04-30T10:58:31.336Z,102439.09
2023-04-30T11:01:03.195Z,102428.38
2023-04-30T11:03:31.502Z,102431.31
2023-04-30T11:06:01.684Z,102436.16
2023-04-30T11:08:39.222Z,102421.88
2023-04-30T11:11:09.181Z,102417.69
2023-04-30T11:13:46.762Z,102406.25
2023-04-30T11:16:14.145Z,102419.78
2023-04-30T11:18:45.528Z,102407.28
2023-04-30T11:21:13.450Z,102403.38
2023-04-30T11:23:44.313Z,102405.09
2023-04-30T11:26:11.567Z,102398.31
2023-04-30T11:28:38.722Z,102386.66
2023-04-30T11:31:06.223Z,102379.38
2023-04-30T11:33:34.339Z,102377.63
2023-04-30T11:36:02.338Z,102379.09
2023-04-30T11:38:31.233Z,102375.44
2023-04-30T11:40:59.148Z,102369.97
2023-04-30T11:43:28.008Z,102379.63
2023-04-30T11:46:00.770Z,102363.38
2023-04-30T11:48:49.926Z,102367.53
2023-04-30T11:51:22.124Z,102369.53
2023-04-30T11:53:50.914Z,102358.91
2023-04-30T11:56:22.532Z,102358.16
2023-04-30T11:58:52.585Z,102350.28
2023-04-30T12:01:21.143Z,102354.28
2023-04-30T12:03:50.436Z,102343.66
2023-04-30T12:06:25.692Z,102344.28
2023-04-30T12:08:55.187Z,102345.94
2023-04-30T12:11:27.469Z,102340.75
2023-04-30T12:14:02.871Z,102337.03
2023-04-30T12:16:41.096Z,102339.13
2023-04-30T12:19:09.553Z,102341.97
2023-04-30T12:21:36.785Z,102328.56
2023-04-30T12:24:03.941Z,102333.25
2023-04-30T12:26:39.654Z,102332.03
2023-04-30T12:29:13.586Z,102328.38
2023-04-30T12:31:42.719Z,102323.56
2023-04-30T12:34:14.752Z,102318.84
2023-04-30T12:36:44.982Z,102318.03
2023-04-30T12:39:13.704Z,102307.50
2023-04-30T12:41:46.055Z,102306.13
2023-04-30T12:44:21.915Z,102312.59
2023-04-30T12:46:50.020Z,102314.03
2023-04-30T12:49:30.300Z,102313.41
2023-04-30T12:52:01.990Z,102311.13
2023-04-30T12:54:30.565Z,102307.88
2023-04-30T12:57:15.566Z,102311.13
2023-04-30T12:59:59.664Z,102302.56
2023-04-30T13:02:32.200Z,102293.66
2023-04-30T13:04:59.621Z,102292.78
2023-04-30T13:07:26.810Z,102295.69
2023-04-30T13:09:53.998Z,102297.28
2023-04-30T13:12:21.458Z,102290.88
2023-04-30T13:14:48.484Z,102294.13
2023-04-30T13:17:15.279Z,102287.47
2023-04-30T13:19:42.266Z,102291.66
2023-04-30T13:22:09.086Z,102277.09
2023-04-30T13:24:36.274Z,102274.63
2023-04-30T13:27:04.180Z,102286.81
2023-04-30T13:29:32.127Z,102272.59
2023-04-30T13:31:59.413Z,102274.63
2023-04-30T13:34:26.375Z,102277.88
2023-04-30T13:36:53.674Z,102270.56
2023-04-30T13:39:20.655Z,102263.63
2023-04-30T13:41:49.294Z,102257.50
2023-04-30T13:44:17.262Z,102256.78
2023-04-30T13:46:44.324Z,102245.81
2023-04-30T13:49:11.191Z,102258.34
2023-04-30T13:51:38.266Z,102243.03
2023-04-30T13:54:05.189Z,102253.75
2023-04-30T13:56:32.354Z,102248.69
2023-04-30T13:58:59.330Z,102249.53
2023-04-30T14:01:26.490Z,102244.50
2023-04-30T14:03:53.476Z,102245.41
2023-04-30T14:06:20.748Z,102246.94
2023-04-30T14:08:47.665Z,102240.84
2023-04-30T14:11:14.831Z,102244.53
2023-04-30T14:13:41.715Z,102239.72
2023-04-30T14:16:08.982Z,102245.94
2023-04-30T14:18:36.126Z,102232.47
2023-04-30T14:21:03.008Z,102226.63
2023-04-30T14:23:30.160Z,102237.63
2023-04-30T14:25:57.066Z,102224.50
2023-04-30T14:28:24.255Z,102220.03
2023-04-30T14:30:51.260Z,102215.00
2023-04-30T14:33:18.352Z,102217.06
2023-04-30T14:35:45.978Z,102224.16
2023-04-30T14:38:13.173Z,102218.41
2023-04-30T14:40:40.272Z,102224.25
2023-04-30T14:43:07.169Z,102219.84
2023-04-30T14:45:34.501Z,102217.00
2023-04-30T14:48:04.007Z,102218.69
2023-04-30T14:50:32.581Z,102214.53
2023-04-30T14:52:59.437Z,102210.06
2023-04-30T14:55:26.587Z,102206.06
2023-04-30T14:57:53.664Z,102197.59
2023-04-30T15:00:20.710Z,102204.50
2023-04-30T15:02:48.156Z,102199.53
2023-04-30T15:05:16.014Z,102202.56
2023-04-30T15:07:43.219Z,102190.88
2023-04-30T15:10:10.651Z,102191.59
2023-04-30T15:12:37.670Z,102184.22
2023-04-30T15:15:04.871Z,102179.97
2023-04-30T15:17:34.918Z,102176.16
2023-04-30T15:20:03.889Z,102179.75
2023-04-30T15:22:31.111Z,102175.63
2023-04-30T15:24:59.469Z,102176.41
2023-04-30T15:27:30.808Z,102164.97
2023-04-30T15:29:59.127Z,102169.63
2023-04-30T15:32:25.908Z,102170.38
2023-04-30T15:34:53.518Z,102173.75
2023-04-30T15:37:21.058Z,102171.53
2023-04-30T15:39:49.687Z,102176.50
2023-04-30T15:42:16.859Z,102168.72
2023-04-30T15:44:43.844Z,102162.81
2023-04-30T15:47:11.680Z,102163.00
2023-04-30T15:49:38.660Z,102163.56
2023-04-30T15:52:06.065Z,102162.69
2023-04-30T15:54:33.079Z,102162.31
2023-04-30T15:57:00.421Z,102151.72
2023-04-30T15:59:27.671Z,102143.00
2023-04-30T16:01:54.890Z,102150.91
2023-04-30T16:04:21.825Z,102141.75
2023-04-30T16:06:49.331Z,102132.38
2023-04-30T16:09:20.579Z,102135.44
2023-04-30T16:11:47.709Z,102139.03
2023-04-30T16:14:14.520Z,102136.84
2023-04-30T16:16:41.536Z,102138.38
2023-04-30T16:19:09.611Z,102133.75
2023-04-30T16:21:38.725Z,102122.41
2023-04-30T16:24:09.365Z,102120.97
2023-04-30T16:26:37.029Z,102119.28
2023-04-30T16:29:05.050Z,102121.78
2023-04-30T16:31:32.621Z,102116.47
2023-04-30T16:33:59.553Z,102120.16
2023-04-30T16:36:26.405Z,102118.13
2023-04-30T16:38:53.249Z,102107.72
2023-04-30T16:41:22.046Z,102108.97
2023-04-30T16:43:48.894Z,102107.91
2023-04-30T16:46:15.884Z,102109.34
2023-04-30T16:48:42.799Z,102109.47
2023-04-30T16:51:09.862Z,102116.22
2023-04-30T16:53:36.729Z,102107.47
2023-04-30T16:56:03.803Z,102107.25
2023-04-30T16:58:30.717Z,102103.19
2023-04-30T17:00:57.679Z,102096.13
2023-04-30T17:03:25.027Z,102097.34
2023-04-30T17:05:52.967Z,102103.72
2023-04-30T17:08:21.402Z,102097.94
2023-04-30T17:10:48.363Z,102102.84
2023-04-30T17:13:15.518Z,102091.91
2023-04-30T17:15:43.431Z,102087.41
2023-04-30T17:18:12.026Z,102081.31
2023-04-30T17:20:39.326Z,102084.69
2023-04-30T17:23:06.277Z,102079.13
2023-04-30T17:25:33.835Z,102081.88
2023-04-30T17:28:01.655Z,102070.09
2023-04-30T17:30:29.137Z,102067.09
2023-04-30T17:32:56.977Z,102074.97
2023-04-30T17:35:23.866Z,102077.25
2023-04-30T17:37:50.936Z,102074.00
2023-04-30T17:40:18.190Z,102076.38
2023-04-30T17:42:45.545Z,102077.41
2023-04-30T17:45:12.733Z,102072.06
2023-04-30T17:47:40.239Z,102080.41
2023-04-30T17:50:09.761Z,102074.41
2023-04-30T17:52:39.109Z,102067.38
2023-04-30T17:55:10.505Z,102078.09
2023-04-30T17:57:38.402Z,102075.56
2023-04-30T18:00:07.249Z,102070.34
2023-04-30T18:02:43.766Z,102071.69
2023-04-30T18:05:11.837Z,102071.53
2023-04-30T18:07:38.984Z,102072.53
2023-04-30T18:10:06.639Z,102071.66
2023-04-30T18:12:33.825Z,102071.13
2023-04-30T18:15:01.326Z,102069.75
2023-04-30T18:17:28.831Z,102077.91
2023-04-30T18:19:56.330Z,102073.38
2023-04-30T18:22:24.232Z,102076.00
2023-04-30T18:24:51.257Z,102075.44
2023-04-30T18:27:18.492Z,102066.50
2023-04-30T18:29:47.156Z,102059.06
2023-04-30T18:32:14.599Z,102055.16
2023-04-30T18:34:42.702Z,102062.69
2023-04-30T18:37:10.068Z,102058.16
2023-04-30T18:39:38.076Z,102058.38
2023-04-30T18:42:05.942Z,102058.19
2023-04-30T18:44:33.811Z,102057.84
2023-04-30T18:47:02.726Z,102059.78
2023-04-30T18:49:30.889Z,102047.28
2023-04-30T18:51:58.450Z,102056.53
2023-04-30T18:54:26.018Z,102057.81
2023-04-30T18:56:53.584Z,102048.06
2023-04-30T18:59:22.287Z,102056.69
2023-04-30T19:01:52.249Z,102060.00
2023-04-30T19:04:19.126Z,102056.84
2023-04-30T19:06:48.324Z,102054.84
2023-04-30T19:09:15.975Z,102061.53
2023-04-30T19:11:43.187Z,102057.59
2023-04-30T19:14:10.257Z,102062.28
2023-04-30T19:16:37.173Z,102058.06
2023-04-30T19:19:04.204Z,102051.72
2023-04-30T19:21:32.520Z,102057.16
2023-04-30T19:24:00.656Z,102059.47
2023-04-30T19:26:28.188Z,102056.44
2023-04-30T19:28:55.220Z,102052.41
2023-04-30T19:31:25.429Z,102060.19
2023-04-30T19:33:52.540Z,102056.72
2023-04-30T19:36:19.422Z,102057.03
2023-04-30T19:38:46.368Z,102055.91
2023-04-30T19:41:13.225Z,102050.78
2023-04-30T19:43:40.103Z,102058.09
2023-04-30T19:46:07.853Z,102049.25
2023-04-30T19:48:34.822Z,102054.25
2023-04-30T19:51:04.127Z,102054.16
2023-04-30T19:53:31.209Z,102050.78
2023-04-30T19:56:00.063Z,102047.94
2023-04-30T19:58:27.164Z,102047.59
2023-04-30T20:00:56.037Z,102050.66
2023-04-30T20:03:23.136Z,102051.06
2023-04-30T20:05:50.238Z,102053.16
2023-04-30T20:08:17.100Z,102054.91
2023-04-30T20:10:44.161Z,102062.94
2023-04-30T20:13:11.317Z,102054.19
2023-04-30T20:15:38.218Z,102059.78
2023-04-30T20:18:06.446Z,102054.78
2023-04-30T20:20:33.348Z,102043.31
2023-04-30T20:23:14.472Z,102041.91
2023-04-30T20:25:45.067Z,102046.38
2023-04-30T20:28:13.818Z,102046.47
2023-04-30T20:30:43.116Z,102044.28
2023-04-30T20:33:11.501Z,102044.72
2023-04-30T20:35:44.150Z,102038.09
2023-04-30T20:38:12.151Z,102041.50
2023-04-30T20:40:41.820Z,102040.75
2023-04-30T20:43:10.395Z,102041.97
2023-04-30T20:45:37.676Z,102033.31
2023-04-30T20:48:05.848Z,102034.09
2023-04-30T20:50:33.168Z,102032.13
2023-04-30T20:53:00.073Z,102032.16
2023-04-30T20:55:27.181Z,102033.88
2023-04-30T20:57:54.204Z,102027.75
2023-04-30T21:00:21.405Z,102027.50
2023-04-30T21:02:48.732Z,102035.31
2023-04-30T21:05:15.774Z,102034.75
2023-04-30T21:07:42.706Z,102029.22
2023-04-30T21:10:09.828Z,102028.22
2023-04-30T21:12:36.925Z,102029.53
2023-04-30T21:15:04.575Z,102021.22
2023-04-30T21:17:32.081Z,102018.84
2023-04-30T21:20:00.777Z,102030.41
2023-04-30T21:22:27.865Z,102022.50
2023-04-30T21:24:54.826Z,102021.94
2023-04-30T21:27:21.867Z,102029.72
2023-04-30T21:29:48.840Z,102021.28
2023-04-30T21:32:16.937Z,102011.03
2023-04-30T21:34:44.408Z,102018.69
2023-04-30T21:37:11.218Z,102013.81
2023-04-30T21:39:38.151Z,102011.03
2023-04-30T21:42:05.349Z,102007.97
2023-04-30T21:44:36.437Z,102017.94
2023-04-30T21:47:03.915Z,102005.50
2023-04-30T21:49:31.529Z,102004.41
2023-04-30T21:51:58.579Z,101999.00
2023-04-30T21:54:25.507Z,102004.13
2023-04-30T21:56:52.439Z,102000.41
2023-04-30T21:59:19.315Z,102006.00
2023-04-30T22:01:46.398Z,101995.88
2023-04-30T22:04:14.104Z,101990.78
2023-04-30T22:06:41.677Z,101985.38
2023-04-30T22:09:09.751Z,101995.41
2023-04-30T22:11:36.642Z,101991.50
2023-04-30T22:14:04.400Z,101993.97
2023-04-30T22:16:33.053Z,101994.13
2023-04-30T22:19:00.459Z,101980.06
2023-04-30T22:21:27.349Z,101982.13
2023-04-30T22:23:54.620Z,101978.19
2023-04-30T22:26:22.694Z,101975.44
2023-04-30T22:28:51.016Z,101977.78
2023-04-30T22:31:18.255Z,101973.56
2023-04-30T22:33:46.123Z,101977.31
2023-04-30T22:36:13.187Z,101977.06
2023-04-30T22:38:40.146Z,101973.50
2023-04-30T22:41:07.410Z,101972.09
2023-04-30T22:43:34.454Z,101964.94
2023-04-30T22:46:02.209Z,101971.00
2023-04-30T22:48:30.140Z,101963.09
2023-04-30T22:50:58.838Z,101965.88
2023-04-30T22:53:26.393Z,101968.19
2023-04-30T22:55:54.551Z,101966.75
2023-04-30T22:58:21.511Z,101963.13
2023-04-30T23:00:48.520Z,101970.19
2023-04-30T23:03:15.616Z,101966.81
2023-04-30T23:05:42.506Z,101965.16
2023-04-30T23:08:09.470Z,101968.47
2023-04-30T23:10:36.372Z,101956.63
2023-04-30T23:13:03.206Z,101964.84
2023-04-30T23:15:30.328Z,101970.72
2023-04-30T23:17:58.303Z,101962.25
2023-04-30T23:20:25.339Z,101959.91
2023-04-30T23:22:52.436Z,101955.31
2023-04-30T23:25:19.283Z,101954.38
2023-04-30T23:27:46.436Z,101956.06
2023-04-30T23:30:13.714Z,101956.72
2023-04-30T23:32:40.816Z,101950.69
2023-04-30T23:35:08.975Z,101944.47
2023-04-30T23:37:36.054Z,101948.19
2023-04-30T23:40:07.395Z,101939.00
2023-04-30T23:42:34.798Z,101938.06
2023-04-30T23:45:01.877Z,101934.06
2023-04-30T23:47:29.149Z,101931.53
2023-04-30T23:49:56.837Z,101938.88
2023-04-30T23:52:23.793Z,101932.19
2023-04-30T23:54:50.798Z,101926.78
2023-04-30T23:57:18.194Z,101924.94
2023-04-30T23:59:45.395Z,101917.84
